Time;durP1;ratioP1;P1;durP2;ratioP2;P2;SDS_P1;SDS_P2;PMS_P1;PMS_P2;Temp;Humidity;BMP_temperature;BMP_pressure;BME280_temperature;BME280_humidity;BME280_pressure;Samples;Min_cycle;Max_cycle;Signal;HPM_P1;HPM_P2
2024/01/26 00:00:13;;;;;;;80.18;13.57;;;7.50;99.90;;;;;;5076753;28;20104;-75
2024/01/26 00:02:38;;;;;;;70.97;12.07;;;7.40;99.90;;;;;;5073572;28;20029;-74
2024/01/26 00:05:04;;;;;;;61.40;11.02;;;7.40;99.90;;;;;;5072545;28;20056;-74
2024/01/26 00:07:31;;;;;;;87.38;13.55;;;7.40;99.90;;;;;;5061774;28;20033;-73
2024/01/26 00:09:56;;;;;;;71.57;12.43;;;7.50;99.90;;;;;;5052551;28;20031;-74
2024/01/26 00:12:22;;;;;;;73.78;13.35;;;7.50;99.90;;;;;;5052569;28;20028;-73
2024/01/26 00:14:48;;;;;;;75.63;12.75;;;7.50;99.90;;;;;;5052714;28;20025;-74
2024/01/26 00:17:13;;;;;;;68.93;12.82;;;7.50;99.90;;;;;;5049930;28;20067;-74
2024/01/26 00:19:39;;;;;;;78.70;13.15;;;7.50;99.90;;;;;;5052541;28;20460;-74
2024/01/26 00:22:05;;;;;;;71.18;13.40;;;7.50;99.90;;;;;;5052493;28;20021;-76
2024/01/26 00:24:30;;;;;;;71.32;13.10;;;7.50;99.90;;;;;;5052316;28;20029;-74
2024/01/26 00:26:56;;;;;;;88.57;12.98;;;7.50;99.90;;;;;;5051881;28;20103;-74
2024/01/26 00:29:21;;;;;;;72.75;13.10;;;7.50;99.90;;;;;;5050435;28;20032;-75
2024/01/26 00:31:47;;;;;;;80.30;13.15;;;7.50;99.90;;;;;;5052323;28;20384;-75
2024/01/26 00:34:12;;;;;;;77.35;12.60;;;7.50;99.90;;;;;;5051984;28;20035;-75
2024/01/26 00:36:38;;;;;;;83.63;14.70;;;7.40;99.90;;;;;;5051523;28;20033;-76
2024/01/26 00:39:03;;;;;;;74.70;12.20;;;7.50;99.90;;;;;;5051962;28;20484;-76
2024/01/26 00:41:29;;;;;;;62.95;12.32;;;7.40;99.90;;;;;;5051931;28;20021;-75
2024/01/26 00:43:55;;;;;;;73.90;12.90;;;7.50;99.90;;;;;;5051931;28;20025;-74
2024/01/26 00:46:21;;;;;;;87.28;14.23;;;7.50;99.90;;;;;;5051339;28;20025;-74
2024/01/26 00:48:46;;;;;;;75.38;13.40;;;7.50;99.90;;;;;;5052060;28;20480;-77
2024/01/26 00:51:12;;;;;;;67.78;11.93;;;7.60;99.90;;;;;;5051610;28;20020;-74
2024/01/26 00:53:37;;;;;;;70.60;12.27;;;7.50;99.90;;;;;;5051742;28;20032;-77
2024/01/26 00:56:03;;;;;;;64.28;12.50;;;7.60;99.90;;;;;;5050950;28;20028;-75
2024/01/26 00:58:29;;;;;;;80.40;13.43;;;7.50;99.90;;;;;;5051921;28;20048;-77
2024/01/26 01:00:54;;;;;;;84.10;14.15;;;7.50;99.90;;;;;;5048356;28;20032;-74
2024/01/26 01:03:20;;;;;;;76.53;14.45;;;7.50;99.90;;;;;;5051464;28;20113;-76
2024/01/26 01:05:45;;;;;;;60.78;12.98;;;7.50;99.90;;;;;;5051368;28;20530;-74
2024/01/26 01:08:11;;;;;;;81.20;14.30;;;7.50;99.90;;;;;;5050198;28;20025;-75
2024/01/26 01:10:37;;;;;;;79.18;14.13;;;7.50;99.90;;;;;;5051315;28;20021;-75
2024/01/26 01:13:04;;;;;;;68.00;14.60;;;7.50;99.90;;;;;;5051235;28;20539;-75
2024/01/26 01:15:31;;;;;;;86.85;15.60;;;7.50;99.90;;;;;;5052171;28;20035;-75
2024/01/26 01:17:57;;;;;;;79.95;14.45;;;7.50;99.90;;;;;;5052276;28;20028;-74
2024/01/26 01:20:23;;;;;;;88.35;14.93;;;7.60;99.90;;;;;;5052247;28;20028;-73
2024/01/26 01:22:48;;;;;;;62.42;13.05;;;7.60;99.90;;;;;;5051754;28;20021;-75
2024/01/26 01:25:14;;;;;;;94.60;16.25;;;7.60;99.90;;;;;;5051176;28;20112;-75
2024/01/26 01:27:40;;;;;;;79.22;15.15;;;7.60;99.90;;;;;;5050177;28;20017;-74
2024/01/26 01:30:07;;;;;;;78.95;15.13;;;7.60;99.90;;;;;;5051209;28;20027;-75
2024/01/26 01:32:34;;;;;;;78.95;14.73;;;7.60;99.90;;;;;;5051264;28;20413;-75
2024/01/26 01:34:59;;;;;;;88.20;14.77;;;7.70;99.90;;;;;;5050746;28;20093;-73
2024/01/26 01:37:25;;;;;;;84.28;14.75;;;7.70;99.90;;;;;;5050338;28;20100;-73
2024/01/26 01:39:51;;;;;;;96.53;14.57;;;7.70;99.90;;;;;;5050904;28;20040;-74
2024/01/26 01:42:16;;;;;;;78.82;14.68;;;7.70;99.90;;;;;;5053782;28;20032;-74
2024/01/26 01:44:43;;;;;;;92.50;14.90;;;7.70;99.90;;;;;;5052446;28;20021;-74
2024/01/26 01:47:13;;;;;;;71.40;14.43;;;7.60;99.90;;;;;;5052140;28;20021;-74
2024/01/26 01:49:40;;;;;;;68.65;13.38;;;7.60;99.90;;;;;;5052227;28;20017;-74
2024/01/26 01:52:08;;;;;;;77.43;14.68;;;7.70;99.90;;;;;;5052211;28;20083;-74
2024/01/26 01:54:34;;;;;;;85.10;14.93;;;7.70;99.90;;;;;;5051955;28;20028;-74
2024/01/26 01:57:04;;;;;;;78.57;14.43;;;7.70;99.90;;;;;;5051560;28;20077;-74
2024/01/26 01:59:30;;;;;;;70.90;13.63;;;7.70;99.90;;;;;;5051712;28;20029;-74
2024/01/26 02:01:56;;;;;;;79.80;14.35;;;7.70;99.90;;;;;;5051639;28;20044;-75
2024/01/26 02:04:22;;;;;;;73.13;14.80;;;7.60;99.90;;;;;;5051812;28;20338;-75
2024/01/26 02:07:01;;;;;;;91.30;16.63;;;7.60;99.90;;;;;;5050773;28;20159;-74
2024/01/26 02:09:27;;;;;;;76.55;15.50;;;7.60;99.90;;;;;;5051666;28;20049;-73
2024/01/26 02:11:53;;;;;;;69.53;14.45;;;7.60;99.90;;;;;;5052209;28;20021;-74
2024/01/26 02:14:20;;;;;;;84.28;16.20;;;7.60;99.90;;;;;;5055622;28;20515;-74
2024/01/26 02:16:56;;;;;;;71.53;14.90;;;7.60;99.90;;;;;;5055467;28;20025;-74
2024/01/26 02:19:23;;;;;;;63.50;13.40;;;7.60;99.90;;;;;;5055442;28;20079;-74
2024/01/26 02:21:49;;;;;;;80.10;15.65;;;7.60;99.90;;;;;;5055309;28;20032;-75
2024/01/26 02:24:14;;;;;;;87.97;15.35;;;7.60;99.90;;;;;;5055255;28;20021;-74
2024/01/26 02:26:41;;;;;;;75.15;14.63;;;7.60;99.90;;;;;;5055125;28;20025;-73
2024/01/26 02:29:07;;;;;;;74.18;14.70;;;7.60;99.90;;;;;;5055486;28;20029;-74
2024/01/26 02:31:32;;;;;;;98.65;17.20;;;7.50;99.90;;;;;;5056198;28;20057;-74
2024/01/26 02:33:58;;;;;;;82.30;15.30;;;7.60;99.90;;;;;;5055874;28;20659;-77
2024/01/26 02:36:26;;;;;;;83.32;15.15;;;7.60;99.90;;;;;;5055456;28;20041;-75
2024/01/26 02:38:51;;;;;;;75.97;15.82;;;7.60;99.90;;;;;;5055833;28;20029;-74
2024/01/26 02:41:17;;;;;;;79.90;15.95;;;7.50;99.90;;;;;;5055329;28;20380;-74
2024/01/26 02:43:42;;;;;;;76.82;16.42;;;7.60;99.90;;;;;;5054130;28;20029;-74
2024/01/26 02:46:09;;;;;;;74.13;17.65;;;7.60;99.90;;;;;;5054876;28;20017;-75
2024/01/26 02:48:35;;;;;;;76.28;18.92;;;7.50;99.90;;;;;;5054767;28;20028;-73
2024/01/26 02:51:01;;;;;;;68.50;16.25;;;7.50;99.90;;;;;;5055320;28;20028;-75
2024/01/26 02:53:26;;;;;;;78.00;17.90;;;7.50;99.90;;;;;;5053765;28;20032;-75
2024/01/26 02:55:52;;;;;;;92.38;18.35;;;7.50;99.90;;;;;;5055347;28;20032;-72
2024/01/26 02:58:18;;;;;;;84.63;18.85;;;7.50;99.90;;;;;;5054822;28;20553;-74
2024/01/26 03:00:44;;;;;;;84.07;17.67;;;7.60;99.90;;;;;;5055049;28;20071;-74
2024/01/26 03:03:09;;;;;;;97.10;19.75;;;7.60;99.90;;;;;;5054860;28;20475;-75
2024/01/26 03:05:35;;;;;;;88.53;18.42;;;7.60;99.90;;;;;;5054991;28;20071;-74
2024/01/26 03:08:01;;;;;;;76.88;19.08;;;7.70;99.90;;;;;;5054609;28;20033;-73
2024/01/26 03:10:27;;;;;;;78.55;18.55;;;7.70;99.90;;;;;;5054805;28;20027;-73
2024/01/26 03:12:52;;;;;;;89.40;21.75;;;7.80;99.90;;;;;;5054690;28;20025;-75
2024/01/26 03:15:18;;;;;;;89.82;20.92;;;7.80;99.90;;;;;;5055015;28;20032;-75
2024/01/26 03:17:44;;;;;;;82.25;20.95;;;7.80;99.90;;;;;;5054564;28;20522;-75
2024/01/26 03:20:10;;;;;;;107.35;24.67;;;7.80;99.90;;;;;;5054831;28;20025;-74
2024/01/26 03:22:36;;;;;;;91.82;22.70;;;7.80;99.90;;;;;;5055026;28;20021;-74
2024/01/26 03:25:02;;;;;;;80.60;22.63;;;7.80;99.90;;;;;;5052434;28;20036;-73
2024/01/26 03:27:28;;;;;;;85.95;21.60;;;7.80;99.90;;;;;;5053498;28;20017;-74
2024/01/26 03:29:53;;;;;;;86.28;22.50;;;7.80;99.90;;;;;;5063968;28;20025;-74
2024/01/26 03:32:19;;;;;;;85.60;23.25;;;7.80;99.90;;;;;;5074183;28;20028;-75
2024/01/26 03:34:45;;;;;;;92.07;23.55;;;7.80;99.90;;;;;;5073945;28;20028;-73
2024/01/26 03:37:10;;;;;;;94.65;24.42;;;7.80;99.90;;;;;;5073294;28;20032;-72
2024/01/26 03:39:36;;;;;;;103.82;23.33;;;7.90;99.90;;;;;;5073190;28;20028;-71
2024/01/26 03:42:02;;;;;;;82.60;23.42;;;7.80;99.90;;;;;;5073813;28;20025;-73
2024/01/26 03:44:27;;;;;;;93.10;22.77;;;7.80;99.90;;;;;;5073353;28;20048;-73
2024/01/26 03:46:53;;;;;;;89.10;23.83;;;7.80;99.90;;;;;;5073503;28;20029;-72
2024/01/26 03:49:18;;;;;;;92.95;23.52;;;7.90;99.90;;;;;;5073825;28;20388;-74
2024/01/26 03:51:44;;;;;;;95.57;25.65;;;7.90;99.90;;;;;;5073983;28;20024;-75
2024/01/26 03:54:10;;;;;;;86.68;25.17;;;7.90;99.90;;;;;;5073971;28;20032;-74
2024/01/26 03:56:35;;;;;;;88.47;23.58;;;7.80;99.90;;;;;;5074002;28;20020;-74
2024/01/26 03:59:01;;;;;;;83.82;24.38;;;7.90;99.90;;;;;;5073933;28;20024;-74
2024/01/26 04:01:26;;;;;;;95.50;23.83;;;7.90;99.90;;;;;;5075642;28;20032;-73
2024/01/26 04:03:52;;;;;;;90.93;25.33;;;7.90;99.90;;;;;;5082619;28;20024;-73
2024/01/26 04:06:18;;;;;;;86.47;24.27;;;7.90;99.90;;;;;;5078502;28;20104;-73
2024/01/26 04:08:44;;;;;;;90.57;25.08;;;7.90;99.90;;;;;;5098564;28;20052;-73
2024/01/26 04:11:09;;;;;;;89.45;26.92;;;7.90;99.90;;;;;;5098375;28;20012;-72
2024/01/26 04:13:35;;;;;;;93.25;25.05;;;7.90;99.90;;;;;;5098342;28;20017;-73
2024/01/26 04:16:01;;;;;;;92.10;26.15;;;8.00;99.90;;;;;;5097726;28;20040;-75
2024/01/26 04:18:26;;;;;;;84.07;25.85;;;7.90;99.90;;;;;;5098128;28;20021;-75
2024/01/26 04:20:52;;;;;;;96.15;25.40;;;8.00;99.90;;;;;;5097395;28;20036;-76
2024/01/26 04:23:17;;;;;;;86.55;25.55;;;8.00;99.90;;;;;;5097350;28;20082;-74
2024/01/26 04:25:43;;;;;;;96.57;25.38;;;8.00;99.90;;;;;;5081107;28;20033;-72
2024/01/26 04:28:10;;;;;;;86.15;26.08;;;8.00;99.90;;;;;;5052439;28;20036;-76
2024/01/26 04:30:36;;;;;;;92.53;26.52;;;8.00;99.90;;;;;;5053708;28;20028;-72
2024/01/26 04:33:02;;;;;;;90.32;26.52;;;8.00;99.90;;;;;;5052747;28;20021;-74
2024/01/26 04:35:27;;;;;;;99.20;28.10;;;8.00;99.90;;;;;;5052592;28;20032;-73
2024/01/26 04:37:53;;;;;;;91.65;26.80;;;8.00;99.90;;;;;;5052382;28;20388;-77
2024/01/26 04:40:19;;;;;;;93.82;27.33;;;8.00;99.90;;;;;;5052673;28;20039;-73
2024/01/26 04:42:45;;;;;;;108.55;28.08;;;8.00;99.90;;;;;;5056779;28;20029;-74
2024/01/26 04:45:11;;;;;;;108.20;29.27;;;8.00;99.90;;;;;;5058245;28;20397;-75
2024/01/26 04:47:36;;;;;;;103.53;28.70;;;7.90;99.90;;;;;;5054508;28;20021;-75
2024/01/26 04:50:02;;;;;;;93.53;28.45;;;8.00;99.90;;;;;;5053418;28;20029;-73
2024/01/26 04:52:28;;;;;;;96.82;29.58;;;8.00;99.90;;;;;;5052878;28;20074;-73
2024/01/26 04:54:54;;;;;;;104.70;29.23;;;8.00;99.90;;;;;;5052522;28;20442;-74
2024/01/26 04:57:20;;;;;;;90.88;29.00;;;8.10;99.90;;;;;;5051947;28;20100;-74
2024/01/26 04:59:45;;;;;;;102.07;28.42;;;8.10;99.90;;;;;;5052590;28;20164;-73
2024/01/26 05:02:11;;;;;;;109.30;31.23;;;8.10;99.90;;;;;;5052938;28;20035;-73
2024/01/26 05:04:37;;;;;;;101.05;30.33;;;8.10;99.90;;;;;;5052785;28;20100;-74
2024/01/26 05:07:03;;;;;;;107.22;30.27;;;8.20;99.90;;;;;;5049578;28;20037;-75
2024/01/26 05:09:28;;;;;;;105.30;31.27;;;8.30;99.90;;;;;;5052277;28;20036;-76
2024/01/26 05:11:54;;;;;;;104.10;32.90;;;8.30;99.90;;;;;;5053434;28;20385;-77
2024/01/26 05:14:21;;;;;;;116.95;31.45;;;8.10;99.90;;;;;;5051059;28;20065;-78
2024/01/26 05:16:47;;;;;;;112.20;31.05;;;8.20;99.90;;;;;;5051614;28;20021;-74
2024/01/26 05:19:12;;;;;;;105.93;31.45;;;8.20;99.90;;;;;;5051814;28;20039;-74
2024/01/26 05:21:40;;;;;;;103.82;31.00;;;8.30;99.90;;;;;;5051791;28;20488;-74
2024/01/26 05:24:06;;;;;;;99.55;31.42;;;8.20;99.90;;;;;;5051026;28;20021;-74
2024/01/26 05:26:31;;;;;;;108.47;31.90;;;8.30;99.90;;;;;;5051732;28;20024;-74
2024/01/26 05:28:57;;;;;;;123.65;34.28;;;8.30;99.90;;;;;;5052184;28;20036;-73
2024/01/26 05:31:22;;;;;;;111.18;34.30;;;8.30;99.90;;;;;;5052081;28;20327;-73
2024/01/26 05:33:48;;;;;;;98.15;32.53;;;;;;;;;;5052754;28;20536;-74
2024/01/26 05:36:14;;;;;;;112.50;33.78;;;;;;;;;;5051857;28;20380;-74
2024/01/26 05:38:40;;;;;;;115.32;33.47;;;;;;;;;;5052244;28;20033;-73
2024/01/26 05:41:06;;;;;;;102.40;31.70;;;;;;;;;;5052221;28;20418;-73
2024/01/26 05:43:32;;;;;;;107.65;33.08;;;;;;;;;;5052094;28;20032;-74
2024/01/26 05:45:58;;;;;;;105.50;34.00;;;;;;;;;;5051673;28;20049;-75
2024/01/26 05:48:24;;;;;;;103.20;32.42;;;;;;;;;;5058229;28;20110;-74
2024/01/26 05:50:51;;;;;;;103.57;31.88;;;;;;;;;;5058520;28;20522;-74
2024/01/26 05:53:17;;;;;;;105.90;33.17;;;;;;;;;;5058960;28;20105;-74
2024/01/26 05:55:42;;;;;;;93.00;31.27;;;8.40;99.90;;;;;;5058277;28;20068;-73
2024/01/26 05:58:08;;;;;;;103.28;33.13;;;8.50;99.90;;;;;;5057545;28;20029;-74
2024/01/26 06:00:33;;;;;;;91.72;31.83;;;8.60;99.90;;;;;;5058315;28;20488;-75
2024/01/26 06:02:59;;;;;;;95.30;30.83;;;8.60;99.90;;;;;;5058054;28;20055;-74
2024/01/26 06:05:24;;;;;;;90.55;33.13;;;8.60;99.90;;;;;;5058510;28;20033;-75
2024/01/26 06:07:50;;;;;;;99.05;33.45;;;8.60;99.90;;;;;;5056526;28;20028;-76
2024/01/26 06:10:16;;;;;;;90.40;32.63;;;8.60;99.90;;;;;;5056503;28;20079;-80
2024/01/26 06:12:44;;;;;;;89.68;34.88;;;8.70;99.90;;;;;;5057718;28;20502;-75
2024/01/26 06:15:10;;;;;;;89.60;32.47;;;8.70;99.90;;;;;;5058152;28;20033;-74
2024/01/26 06:17:35;;;;;;;86.65;33.10;;;8.80;99.90;;;;;;5060497;28;20025;-76
2024/01/26 06:20:03;;;;;;;93.65;34.55;;;8.80;99.90;;;;;;5057275;28;20506;-78
2024/01/26 06:22:29;;;;;;;89.45;33.38;;;8.70;99.90;;;;;;5062012;28;20036;-79
2024/01/26 06:24:54;;;;;;;95.10;35.55;;;8.80;99.90;;;;;;5057293;28;20595;-76
2024/01/26 06:27:20;;;;;;;99.65;34.65;;;8.80;99.90;;;;;;5057828;28;20087;-77
2024/01/26 06:29:46;;;;;;;88.68;35.25;;;8.80;99.90;;;;;;5057460;28;20484;-76
2024/01/26 06:32:13;;;;;;;93.65;36.33;;;8.90;99.90;;;;;;5057639;28;20052;-78
2024/01/26 06:34:40;;;;;;;87.15;34.25;;;8.80;99.90;;;;;;5053750;28;20083;-74
2024/01/26 06:37:06;;;;;;;87.72;34.33;;;8.90;99.90;;;;;;5058795;28;20427;-74
2024/01/26 06:39:34;;;;;;;86.85;34.38;;;8.90;99.90;;;;;;5062405;28;20411;-74
2024/01/26 06:42:00;;;;;;;92.40;34.67;;;8.90;99.90;;;;;;5051597;28;20055;-75
2024/01/26 06:44:26;;;;;;;94.05;36.40;;;9.00;99.90;;;;;;5058284;28;20021;-75
2024/01/26 06:46:51;;;;;;;91.30;35.42;;;9.00;99.90;;;;;;5058058;28;20017;-76
2024/01/26 06:49:17;;;;;;;83.88;35.25;;;9.10;99.90;;;;;;5058700;28;20471;-74
2024/01/26 06:51:43;;;;;;;83.70;35.65;;;9.20;99.90;;;;;;5058129;28;20044;-77
2024/01/26 06:54:08;;;;;;;80.07;35.38;;;9.20;99.90;;;;;;5061431;28;20025;-77
2024/01/26 06:56:34;;;;;;;77.20;34.70;;;9.10;99.90;;;;;;5059950;28;20032;-77
2024/01/26 06:59:00;;;;;;;86.70;36.05;;;9.20;99.90;;;;;;5055039;28;20071;-75
2024/01/26 07:01:25;;;;;;;93.75;38.22;;;9.20;99.90;;;;;;5054270;28;20048;-76
2024/01/26 07:03:51;;;;;;;93.55;38.35;;;9.30;99.90;;;;;;5054017;28;20096;-76
2024/01/26 07:06:16;;;;;;;80.95;37.20;;;9.30;99.90;;;;;;5054308;28;20074;-76
2024/01/26 07:08:42;;;;;;;90.25;38.53;;;9.30;99.90;;;;;;5055371;28;20756;-77
2024/01/26 07:11:08;;;;;;;82.43;37.63;;;9.40;99.90;;;;;;5056252;28;20108;-75
2024/01/26 07:13:33;;;;;;;91.13;40.58;;;9.40;99.90;;;;;;5054529;28;20033;-78
2024/01/26 07:15:59;;;;;;;96.38;41.28;;;9.30;99.90;;;;;;5055935;28;20036;-77
2024/01/26 07:18:24;;;;;;;91.25;40.17;;;9.30;99.90;;;;;;5056109;28;20080;-77
2024/01/26 07:20:50;;;;;;;86.80;39.17;;;9.40;99.90;;;;;;5062102;28;20036;-74
2024/01/26 07:23:16;;;;;;;96.15;41.67;;;9.40;99.90;;;;;;5053765;28;20364;-73
2024/01/26 07:25:41;;;;;;;91.22;39.85;;;9.40;99.90;;;;;;5053862;28;20025;-73
2024/01/26 07:28:07;;;;;;;94.28;41.35;;;9.40;99.90;;;;;;5053453;28;20432;-74
2024/01/26 07:30:33;;;;;;;93.55;41.83;;;9.40;99.90;;;;;;5054030;28;20021;-72
2024/01/26 07:32:59;;;;;;;91.30;41.92;;;9.50;99.90;;;;;;5054120;28;20029;-75
2024/01/26 07:35:24;;;;;;;96.32;43.17;;;9.50;99.90;;;;;;5054125;28;20104;-75
2024/01/26 07:37:50;;;;;;;99.13;43.10;;;9.50;99.90;;;;;;5053939;28;20036;-76
2024/01/26 07:40:16;;;;;;;91.20;43.40;;;9.50;99.90;;;;;;5054367;28;20032;-75
2024/01/26 07:42:41;;;;;;;92.25;43.35;;;9.50;99.90;;;;;;5054512;28;20105;-76
2024/01/26 07:45:07;;;;;;;105.93;45.30;;;9.50;99.90;;;;;;5054563;28;20032;-74
2024/01/26 07:47:35;;;;;;;93.13;43.40;;;9.60;99.90;;;;;;5054067;28;20060;-72
2024/01/26 07:50:02;;;;;;;95.15;42.90;;;9.60;99.90;;;;;;5054064;28;20017;-73
2024/01/26 07:52:28;;;;;;;96.95;44.53;;;9.60;99.90;;;;;;5054569;28;20033;-76
2024/01/26 07:54:54;;;;;;;100.22;45.17;;;9.60;99.90;;;;;;5053664;28;20048;-74
2024/01/26 07:57:20;;;;;;;97.50;44.78;;;9.60;99.90;;;;;;5053638;28;20100;-72
2024/01/26 07:59:49;;;;;;;88.35;43.78;;;9.60;99.90;;;;;;5053615;28;20055;-72
2024/01/26 08:02:15;;;;;;;91.90;43.17;;;9.60;99.90;;;;;;5054294;28;20110;-74
2024/01/26 08:04:41;;;;;;;86.80;41.95;;;9.70;99.90;;;;;;5053462;28;20048;-73
2024/01/26 08:07:06;;;;;;;81.80;39.95;;;9.70;99.90;;;;;;5053323;28;20040;-73
2024/01/26 08:09:33;;;;;;;83.40;41.85;;;9.70;99.90;;;;;;5053743;28;20107;-74
2024/01/26 08:11:58;;;;;;;84.72;41.95;;;9.70;99.90;;;;;;5054480;28;20403;-73
2024/01/26 08:14:24;;;;;;;80.82;41.08;;;9.80;99.90;;;;;;5053675;28;20104;-75
2024/01/26 08:16:50;;;;;;;78.13;39.90;;;9.80;99.90;;;;;;5052576;28;20024;-74
2024/01/26 08:19:15;;;;;;;93.00;45.03;;;9.90;99.90;;;;;;5053236;28;20064;-74
2024/01/26 08:21:41;;;;;;;80.90;40.60;;;9.90;99.90;;;;;;5053926;28;20056;-73
2024/01/26 08:24:06;;;;;;;78.78;40.90;;;9.90;99.90;;;;;;5053092;28;20453;-74
2024/01/26 08:26:33;;;;;;;80.85;41.65;;;9.90;99.90;;;;;;5043575;28;20039;-75
2024/01/26 08:28:59;;;;;;;73.50;38.55;;;9.90;99.90;;;;;;5037511;28;20032;-74
2024/01/26 08:31:25;;;;;;;78.38;41.03;;;9.90;99.90;;;;;;5034522;28;20108;-73
2024/01/26 08:33:50;;;;;;;73.72;39.00;;;9.90;99.90;;;;;;5033558;28;20033;-74
2024/01/26 08:36:16;;;;;;;77.63;38.55;;;10.00;99.90;;;;;;5034498;28;20025;-75
2024/01/26 08:38:41;;;;;;;73.53;38.72;;;10.00;99.90;;;;;;5036099;28;20085;-76
2024/01/26 08:41:07;;;;;;;74.07;37.65;;;10.00;99.90;;;;;;5037190;28;20026;-76
2024/01/26 08:43:33;;;;;;;70.30;37.33;;;10.00;99.90;;;;;;5063132;28;20037;-76
2024/01/26 08:45:59;;;;;;;71.80;36.20;;;10.00;99.90;;;;;;5055135;28;20048;-77
2024/01/26 08:48:25;;;;;;;68.97;37.33;;;10.10;99.90;;;;;;5043638;28;20025;-74
2024/01/26 08:50:50;;;;;;;66.85;36.45;;;10.10;99.90;;;;;;5053593;28;20045;-76
2024/01/26 08:53:16;;;;;;;70.20;35.83;;;10.10;99.90;;;;;;5065467;28;20017;-75
2024/01/26 08:55:43;;;;;;;61.65;33.88;;;10.10;99.90;;;;;;5074925;28;20032;-75
2024/01/26 08:58:08;;;;;;;60.75;33.40;;;10.10;99.90;;;;;;5096260;28;20020;-76
2024/01/26 09:00:35;;;;;;;62.72;34.85;;;10.10;99.90;;;;;;5095480;28;20031;-73
2024/01/26 09:03:02;;;;;;;61.97;34.35;;;10.10;99.90;;;;;;5074897;28;20076;-75
2024/01/26 09:05:28;;;;;;;64.38;34.30;;;10.10;99.90;;;;;;5074055;28;20016;-75
2024/01/26 09:07:54;;;;;;;66.63;34.47;;;10.10;99.90;;;;;;5073230;28;20135;-74
2024/01/26 09:10:23;;;;;;;67.20;34.88;;;10.30;99.90;;;;;;5058274;28;20428;-74
2024/01/26 09:12:49;;;;;;;62.83;35.13;;;10.20;99.90;;;;;;5051902;28;20031;-72
2024/01/26 09:15:14;;;;;;;56.53;32.80;;;10.20;99.90;;;;;;5052038;28;20387;-74
2024/01/26 09:17:40;;;;;;;63.47;34.78;;;10.10;99.90;;;;;;5051019;28;20036;-73
2024/01/26 09:20:06;;;;;;;60.80;34.25;;;10.20;99.90;;;;;;5052211;28;20093;-74
2024/01/26 09:22:33;;;;;;;52.90;31.98;;;10.20;99.90;;;;;;5051435;28;20229;-72
2024/01/26 09:24:58;;;;;;;55.72;32.38;;;10.20;99.90;;;;;;5051550;28;20412;-72
2024/01/26 09:27:24;;;;;;;57.90;31.92;;;10.20;99.90;;;;;;5050855;28;20113;-72
2024/01/26 09:29:50;;;;;;;59.60;31.40;;;10.20;99.90;;;;;;5051753;28;20028;-75
2024/01/26 09:32:15;;;;;;;57.35;32.33;;;10.20;99.90;;;;;;5051361;28;20032;-74
2024/01/26 09:34:41;;;;;;;57.63;31.75;;;10.20;99.90;;;;;;5051490;28;20060;-74
2024/01/26 09:37:06;;;;;;;54.00;29.98;;;10.30;99.90;;;;;;5051058;28;20178;-74
2024/01/26 09:39:32;;;;;;;53.65;30.73;;;10.30;99.90;;;;;;5051516;28;20040;-74
2024/01/26 09:41:58;;;;;;;52.83;29.83;;;10.20;99.90;;;;;;5052364;28;20031;-72
2024/01/26 09:44:23;;;;;;;50.80;30.05;;;10.20;99.90;;;;;;5052511;28;20396;-74
2024/01/26 09:46:49;;;;;;;52.10;31.20;;;10.30;99.90;;;;;;5051167;28;20029;-74
2024/01/26 09:49:15;;;;;;;51.88;30.60;;;10.30;99.90;;;;;;5051791;28;20017;-74
2024/01/26 09:51:41;;;;;;;50.90;30.15;;;10.30;99.90;;;;;;5052769;28;20025;-76
2024/01/26 09:54:08;;;;;;;53.45;31.60;;;10.30;99.90;;;;;;5052276;28;20040;-76
2024/01/26 09:56:37;;;;;;;50.75;29.35;;;10.30;99.90;;;;;;5052142;28;20032;-76
2024/01/26 09:59:05;;;;;;;44.72;26.73;;;10.30;99.90;;;;;;5054522;28;20039;-77
2024/01/26 10:01:33;;;;;;;47.67;27.05;;;10.40;99.90;;;;;;5054358;28;20113;-76
2024/01/26 10:03:59;;;;;;;45.88;27.33;;;10.40;99.90;;;;;;5057339;28;20029;-77
2024/01/26 10:06:25;;;;;;;51.13;27.08;;;10.40;99.90;;;;;;5055314;28;20650;-77
2024/01/26 10:08:50;;;;;;;38.90;24.83;;;10.40;99.90;;;;;;5054231;28;20100;-76
2024/01/26 10:11:16;;;;;;;37.67;24.60;;;10.60;99.90;;;;;;5054396;28;20048;-77
2024/01/26 10:13:42;;;;;;;40.53;25.55;;;10.60;99.90;;;;;;5052421;28;20029;-77
2024/01/26 10:16:12;;;;;;;35.95;24.45;;;10.50;99.90;;;;;;5052421;28;20037;-78
2024/01/26 10:18:42;;;;;;;36.00;24.25;;;10.60;99.90;;;;;;5052699;28;20017;-81
2024/01/26 10:21:08;;;;;;;35.75;23.48;;;10.60;99.90;;;;;;5053329;28;20067;-76
2024/01/26 10:23:34;;;;;;;34.08;23.00;;;10.70;99.90;;;;;;5053812;28;20025;-77
2024/01/26 10:25:59;;;;;;;31.83;22.25;;;10.60;99.90;;;;;;5051520;28;20028;-75
2024/01/26 10:28:25;;;;;;;32.60;22.35;;;10.60;99.90;;;;;;5051162;28;20108;-74
2024/01/26 10:30:51;;;;;;;27.90;20.13;;;10.70;99.90;;;;;;5051436;28;20136;-77
2024/01/26 10:33:19;;;;;;;27.23;20.70;;;10.70;99.90;;;;;;5052033;28;20033;-73
2024/01/26 10:35:48;;;;;;;30.88;21.55;;;10.70;99.90;;;;;;5054838;28;20554;-74
2024/01/26 10:38:15;;;;;;;27.50;19.40;;;10.80;99.90;;;;;;5052417;28;20020;-73
2024/01/26 10:40:44;;;;;;;27.77;18.80;;;10.70;99.90;;;;;;5054640;28;20391;-74
2024/01/26 10:43:11;;;;;;;30.63;19.23;;;10.80;99.90;;;;;;5055112;28;20021;-74
2024/01/26 10:45:38;;;;;;;24.65;17.88;;;10.80;99.90;;;;;;5055015;28;20021;-73
2024/01/26 10:48:05;;;;;;;23.02;16.30;;;10.90;99.90;;;;;;5054375;28;20017;-73
2024/01/26 10:50:32;;;;;;;23.60;16.65;;;10.90;99.90;;;;;;5054983;28;20380;-72
2024/01/26 10:52:58;;;;;;;23.42;16.55;;;11.00;99.90;;;;;;5055116;28;20051;-73
2024/01/26 10:55:26;;;;;;;22.60;16.58;;;11.10;99.90;;;;;;5054601;28;20021;-72
2024/01/26 10:57:52;;;;;;;17.58;13.73;;;11.10;99.90;;;;;;5054200;28;20021;-74
2024/01/26 11:00:18;;;;;;;20.48;14.60;;;11.10;99.90;;;;;;5054500;28;20032;-73
2024/01/26 11:02:44;;;;;;;19.25;13.90;;;11.10;99.90;;;;;;5053815;28;20361;-73
2024/01/26 11:05:12;;;;;;;17.23;13.50;;;11.20;99.90;;;;;;5055012;28;20381;-72
2024/01/26 11:07:39;;;;;;;14.43;11.43;;;11.20;99.90;;;;;;5055065;28;20103;-76
2024/01/26 11:10:10;;;;;;;15.27;12.48;;;11.20;99.90;;;;;;5053857;28;20040;-76
2024/01/26 11:12:37;;;;;;;15.75;11.35;;;11.20;99.90;;;;;;5053582;28;20507;-73
2024/01/26 11:15:09;;;;;;;13.80;10.88;;;11.20;99.90;;;;;;5054215;28;20029;-75
2024/01/26 11:17:50;;;;;;;13.18;9.73;;;11.20;99.90;;;;;;5053297;28;20031;-74
2024/01/26 11:20:21;;;;;;;12.25;9.65;;;11.30;99.90;;;;;;5054086;28;20029;-73
2024/01/26 11:22:58;;;;;;;12.68;9.80;;;11.20;99.90;;;;;;5053210;28;20032;-73
2024/01/26 11:25:23;;;;;;;11.63;9.13;;;11.20;99.90;;;;;;5053028;28;20079;-73
2024/01/26 11:27:58;;;;;;;12.90;9.90;;;11.20;99.90;;;;;;5051161;28;20021;-72
2024/01/26 11:30:25;;;;;;;13.80;9.80;;;11.30;99.90;;;;;;5052811;28;20025;-74
2024/01/26 11:32:51;;;;;;;12.18;10.15;;;11.30;99.90;;;;;;5051973;28;20024;-74
2024/01/26 11:35:17;;;;;;;15.95;11.13;;;11.30;99.90;;;;;;5051143;28;20044;-73
2024/01/26 11:37:43;;;;;;;22.00;11.55;;;11.30;99.90;;;;;;5051703;28;20437;-74
2024/01/26 11:40:09;;;;;;;13.90;10.57;;;11.30;99.90;;;;;;5052288;28;20108;-76
2024/01/26 11:42:36;;;;;;;11.32;6.28;;;11.20;99.90;;;;;;5052412;28;20013;-74
2024/01/26 11:45:12;;;;;;;3.60;2.97;;;11.20;99.90;;;;;;5051019;28;20028;-76
2024/01/26 11:47:39;;;;;;;11.30;2.42;;;11.20;99.90;;;;;;5049043;28;20051;-73
2024/01/26 11:50:09;;;;;;;18.70;2.15;;;11.20;99.90;;;;;;5051674;28;20358;-74
2024/01/26 11:52:36;;;;;;;24.27;2.70;;;11.20;99.90;;;;;;5051504;28;20024;-73
2024/01/26 11:55:03;;;;;;;17.77;2.70;;;11.20;99.90;;;;;;5051587;28;20056;-73
2024/01/26 11:57:35;;;;;;;30.67;4.25;;;11.10;99.90;;;;;;5052573;28;20349;-74
2024/01/26 12:00:12;;;;;;;26.45;4.07;;;11.10;99.90;;;;;;5051551;28;20078;-75
2024/01/26 12:02:38;;;;;;;27.92;4.57;;;11.10;99.90;;;;;;5053500;28;20480;-74
2024/01/26 12:05:04;;;;;;;32.20;3.97;;;11.00;99.90;;;;;;5051793;28;20074;-75
2024/01/26 12:07:29;;;;;;;35.17;5.82;;;11.00;99.90;;;;;;5052316;28;20103;-75
2024/01/26 12:09:55;;;;;;;40.70;5.70;;;10.90;99.90;;;;;;5051191;28;20098;-74
2024/01/26 12:12:21;;;;;;;34.80;4.97;;;10.80;99.90;;;;;;5052459;28;20036;-73
2024/01/26 12:14:47;;;;;;;43.25;6.03;;;10.80;99.90;;;;;;5052906;28;20055;-73
2024/01/26 12:17:12;;;;;;;44.08;6.35;;;10.70;99.90;;;;;;5052290;28;20399;-74
2024/01/26 12:19:38;;;;;;;46.83;5.20;;;10.60;99.90;;;;;;5052601;28;20082;-74
2024/01/26 12:22:07;;;;;;;42.90;6.47;;;10.60;99.90;;;;;;5052797;28;20029;-73
2024/01/26 12:24:36;;;;;;;48.45;5.78;;;10.50;99.90;;;;;;5052553;28;20032;-73
2024/01/26 12:27:02;;;;;;;44.03;5.88;;;10.50;99.90;;;;;;5052163;28;20459;-73
2024/01/26 12:29:31;;;;;;;44.83;6.15;;;10.40;99.90;;;;;;5053662;28;20021;-76